LVWPG SAEZ-SASA
Flight info
| Callsign | LVWPG |
|---|---|
| Flight time | 2h 52m |
| Altitude | 26000 |
| Route | BIVAM1E BIVAM UW8 ERE UT672 DADMI UT677 ILPAR |
| Aircraft | B350/L-SBDFGR/S |
Departure
| Time | 2026-05-07 21:39 |
|---|---|
| Airport | Ezeiza International Airport - Ministro Pistarini (SAEZ) |
Arrival
| Time | 2026-05-08 00:32 |
|---|---|
| Airport | Martín Miguel de Güemes International Airport (SASA) |
| Time | Latitude | Longitude | Altitude | Speed | Heading |
|---|---|---|---|---|---|
| 2026-05-07 20:42 | -34.79908 | -58.52564 | 71 ft | 0 kts | 45° |
| 2026-05-07 20:44 | -34.79909 | -58.52564 | 71 ft | 0 kts | 45° |
| 2026-05-07 20:52 | -34.79909 | -58.52565 | 71 ft | 0 kts | 45° |
| 2026-05-07 20:56 | -34.79910 | -58.52565 | 71 ft | 0 kts | 45° |
| 2026-05-07 21:01 | -34.79910 | -58.52566 | 71 ft | 0 kts | 45° |
| 2026-05-07 21:08 | -34.79911 | -58.52566 | 44 ft | 0 kts | 45° |
| 2026-05-07 21:12 | -34.79911 | -58.52567 | 44 ft | 0 kts | 45° |
| 2026-05-07 21:20 | -34.79912 | -58.52567 | 71 ft | 0 kts | 45° |
| 2026-05-07 21:21 | -34.79912 | -58.52568 | 71 ft | 0 kts | 45° |
| 2026-05-07 21:22 | -34.79909 | -58.52566 | 44 ft | 2 kts | 10° |
| 2026-05-07 21:23 | -34.79905 | -58.52586 | 68 ft | 3 kts | 250° |
| 2026-05-07 21:23 | -34.79921 | -58.52613 | 71 ft | 5 kts | 229° |
| 2026-05-07 21:23 | -34.79915 | -58.52635 | 68 ft | 4 kts | 320° |
| 2026-05-07 21:23 | -34.79887 | -58.52667 | 71 ft | 6 kts | 318° |
| 2026-05-07 21:24 | -34.79859 | -58.52703 | 67 ft | 5 kts | 314° |
| 2026-05-07 21:24 | -34.79834 | -58.52732 | 71 ft | 6 kts | 316° |
| 2026-05-07 21:24 | -34.79801 | -58.52773 | 71 ft | 8 kts | 313° |
| 2026-05-07 21:24 | -34.79763 | -58.52817 | 70 ft | 6 kts | 317° |
| 2026-05-07 21:25 | -34.79732 | -58.52857 | 66 ft | 7 kts | 314° |
| 2026-05-07 21:25 | -34.79729 | -58.52899 | 71 ft | 6 kts | 232° |
| 2026-05-07 21:25 | -34.79761 | -58.52938 | 71 ft | 7 kts | 227° |
| 2026-05-07 21:25 | -34.79790 | -58.52973 | 71 ft | 5 kts | 225° |
| 2026-05-07 21:26 | -34.79812 | -58.53000 | 71 ft | 5 kts | 226° |
| 2026-05-07 21:26 | -34.79841 | -58.53036 | 69 ft | 7 kts | 223° |
| 2026-05-07 21:26 | -34.79878 | -58.53082 | 71 ft | 8 kts | 227° |
| 2026-05-07 21:26 | -34.79923 | -58.53137 | 67 ft | 10 kts | 226° |
| 2026-05-07 21:27 | -34.79973 | -58.53197 | 69 ft | 10 kts | 223° |
| 2026-05-07 21:27 | -34.80022 | -58.53259 | 66 ft | 11 kts | 227° |
| 2026-05-07 21:27 | -34.80073 | -58.53319 | 66 ft | 10 kts | 225° |
| 2026-05-07 21:27 | -34.80122 | -58.53381 | 66 ft | 10 kts | 227° |
| 2026-05-07 21:28 | -34.80170 | -58.53438 | 68 ft | 8 kts | 228° |
| 2026-05-07 21:28 | -34.80235 | -58.53520 | 69 ft | 12 kts | 224° |
| 2026-05-07 21:28 | -34.80302 | -58.53603 | 68 ft | 14 kts | 225° |
| 2026-05-07 21:28 | -34.80366 | -58.53672 | 71 ft | 8 kts | 219° |
| 2026-05-07 21:29 | -34.80419 | -58.53710 | 66 ft | 10 kts | 201° |
| 2026-05-07 21:29 | -34.80480 | -58.53734 | 69 ft | 8 kts | 186° |
| 2026-05-07 21:29 | -34.80545 | -58.53737 | 65 ft | 10 kts | 175° |
| 2026-05-07 21:29 | -34.80617 | -58.53722 | 71 ft | 10 kts | 164° |
| 2026-05-07 21:30 | -34.80697 | -58.53694 | 72 ft | 12 kts | 165° |
| 2026-05-07 21:30 | -34.80779 | -58.53665 | 72 ft | 14 kts | 164° |
| 2026-05-07 21:30 | -34.80872 | -58.53632 | 70 ft | 15 kts | 162° |
| 2026-05-07 21:30 | -34.80972 | -58.53597 | 67 ft | 14 kts | 164° |
| 2026-05-07 21:31 | -34.81069 | -58.53563 | 72 ft | 13 kts | 162° |
| 2026-05-07 21:31 | -34.81136 | -58.53560 | 72 ft | 10 kts | 207° |
| 2026-05-07 21:31 | -34.81203 | -58.53588 | 72 ft | 11 kts | 188° |
| 2026-05-07 21:31 | -34.81277 | -58.53589 | 72 ft | 10 kts | 179° |
| 2026-05-07 21:32 | -34.81349 | -58.53588 | 69 ft | 11 kts | 186° |
| 2026-05-07 21:32 | -34.81428 | -58.53610 | 71 ft | 11 kts | 197° |
| 2026-05-07 21:32 | -34.81495 | -58.53642 | 71 ft | 10 kts | 205° |
| 2026-05-07 21:32 | -34.81558 | -58.53686 | 71 ft | 10 kts | 219° |
| 2026-05-07 21:33 | -34.81604 | -58.53739 | 70 ft | 8 kts | 224° |
| 2026-05-07 21:33 | -34.81660 | -58.53771 | 69 ft | 10 kts | 174° |
| 2026-05-07 21:33 | -34.81732 | -58.53728 | 71 ft | 11 kts | 154° |
| 2026-05-07 21:33 | -34.81810 | -58.53684 | 71 ft | 11 kts | 155° |
| 2026-05-07 21:34 | -34.81875 | -58.53643 | 67 ft | 8 kts | 148° |
| 2026-05-07 21:34 | -34.81912 | -58.53594 | 68 ft | 11 kts | 106° |
| 2026-05-07 21:34 | -34.81934 | -58.53484 | 72 ft | 16 kts | 101° |
| 2026-05-07 21:34 | -34.81964 | -58.53335 | 72 ft | 20 kts | 103° |
| 2026-05-07 21:35 | -34.81998 | -58.53162 | 68 ft | 21 kts | 105° |
| 2026-05-07 21:35 | -34.82033 | -58.52997 | 76 ft | 17 kts | 108° |
| 2026-05-07 21:35 | -34.82063 | -58.52839 | 74 ft | 22 kts | 103° |
| 2026-05-07 21:35 | -34.82098 | -58.52659 | 68 ft | 18 kts | 108° |
| 2026-05-07 21:36 | -34.82131 | -58.52492 | 72 ft | 22 kts | 105° |
| 2026-05-07 21:36 | -34.82167 | -58.52317 | 72 ft | 20 kts | 102° |
| 2026-05-07 21:36 | -34.82200 | -58.52150 | 69 ft | 20 kts | 103° |
| 2026-05-07 21:36 | -34.82231 | -58.51991 | 72 ft | 15 kts | 104° |
| 2026-05-07 21:37 | -34.82259 | -58.51862 | 68 ft | 16 kts | 104° |
| 2026-05-07 21:37 | -34.82282 | -58.51787 | 72 ft | 6 kts | 144° |
| 2026-05-07 21:37 | -34.82326 | -58.51788 | 72 ft | 8 kts | 193° |
| 2026-05-07 21:37 | -34.82384 | -58.51803 | 73 ft | 9 kts | 192° |
| 2026-05-07 21:38 | -34.82444 | -58.51821 | 66 ft | 8 kts | 192° |
| 2026-05-07 21:38 | -34.82496 | -58.51837 | 80 ft | 7 kts | 203° |
| 2026-05-07 21:38 | -34.82519 | -58.51885 | 75 ft | 8 kts | 267° |
| 2026-05-07 21:38 | -34.82510 | -58.51968 | 73 ft | 12 kts | 279° |
| 2026-05-07 21:39 | -34.82473 | -58.52183 | 76 ft | 54 kts | 282° |
| 2026-05-07 21:39 | -34.82342 | -58.52906 | 105 ft | 114 kts | 281° |
| 2026-05-07 21:39 | -34.82170 | -58.53939 | 456 ft | 135 kts | 281° |
| 2026-05-07 21:39 | -34.81956 | -58.55165 | 926 ft | 151 kts | 277° |
| 2026-05-07 21:40 | -34.81774 | -58.56428 | 1682 ft | 154 kts | 275° |
| 2026-05-07 21:40 | -34.81574 | -58.57685 | 2309 ft | 144 kts | 277° |
| 2026-05-07 21:40 | -34.81284 | -58.58824 | 2951 ft | 141 kts | 277° |
| 2026-05-07 21:40 | -34.81104 | -58.59990 | 3437 ft | 137 kts | 256° |
| 2026-05-07 21:41 | -34.81538 | -58.60985 | 3932 ft | 137 kts | 230° |
| 2026-05-07 21:41 | -34.82156 | -58.61877 | 4421 ft | 139 kts | 231° |
| 2026-05-07 21:41 | -34.82790 | -58.62803 | 4900 ft | 146 kts | 231° |
| 2026-05-07 21:41 | -34.83453 | -58.63762 | 5458 ft | 150 kts | 232° |
| 2026-05-07 21:42 | -34.84149 | -58.64762 | 5938 ft | 159 kts | 232° |
| 2026-05-07 21:42 | -34.84868 | -58.65793 | 6529 ft | 156 kts | 235° |
| 2026-05-07 21:42 | -34.85569 | -58.66815 | 7070 ft | 161 kts | 235° |
| 2026-05-07 21:42 | -34.86300 | -58.67875 | 7555 ft | 166 kts | 234° |
| 2026-05-07 21:43 | -34.87047 | -58.68948 | 8159 ft | 164 kts | 236° |
| 2026-05-07 21:43 | -34.87786 | -58.70016 | 8711 ft | 167 kts | 237° |
| 2026-05-07 21:43 | -34.88703 | -58.70947 | 9253 ft | 181 kts | 211° |
| 2026-05-07 21:43 | -34.89978 | -58.71248 | 9763 ft | 196 kts | 180° |
| 2026-05-07 21:44 | -34.91240 | -58.70712 | 10517 ft | 191 kts | 151° |
| 2026-05-07 21:44 | -34.92313 | -58.69804 | 11183 ft | 188 kts | 146° |
| 2026-05-07 21:44 | -34.93327 | -58.68819 | 11768 ft | 189 kts | 140° |
| 2026-05-07 21:44 | -34.94296 | -58.67709 | 12330 ft | 189 kts | 134° |
| 2026-05-07 21:45 | -34.95180 | -58.66516 | 12912 ft | 192 kts | 129° |
| 2026-05-07 21:45 | -34.95965 | -58.65198 | 13449 ft | 195 kts | 114° |
| 2026-05-07 21:45 | -34.96327 | -58.63634 | 13946 ft | 191 kts | 87° |
| 2026-05-07 21:45 | -34.96145 | -58.62054 | 14409 ft | 186 kts | 62° |
| 2026-05-07 21:46 | -34.95508 | -58.60728 | 14910 ft | 178 kts | 38° |
| 2026-05-07 21:46 | -34.94574 | -58.59819 | 15416 ft | 168 kts | 17° |
| 2026-05-07 21:46 | -34.93517 | -58.59273 | 15937 ft | 165 kts | 11° |
| 2026-05-07 21:46 | -34.92461 | -58.58718 | 16473 ft | 165 kts | 10° |
| 2026-05-07 21:47 | -34.91408 | -58.58174 | 17003 ft | 165 kts | 9° |
| 2026-05-07 21:47 | -34.90351 | -58.57629 | 17563 ft | 164 kts | 8° |
| 2026-05-07 21:47 | -34.89299 | -58.57087 | 18110 ft | 164 kts | 7° |
| 2026-05-07 21:47 | -34.88258 | -58.56548 | 18624 ft | 161 kts | 7° |
| 2026-05-07 21:48 | -34.87237 | -58.56021 | 19143 ft | 158 kts | 6° |
| 2026-05-07 21:48 | -34.86236 | -58.55504 | 19663 ft | 155 kts | 6° |
| 2026-05-07 21:48 | -34.85292 | -58.55008 | 20360 ft | 139 kts | 5° |
| 2026-05-07 21:48 | -34.84423 | -58.54563 | 20927 ft | 134 kts | 4° |
| 2026-05-07 21:49 | -34.83571 | -58.54129 | 21490 ft | 131 kts | 4° |
| 2026-05-07 21:49 | -34.82740 | -58.53741 | 22049 ft | 120 kts | 354° |
| 2026-05-07 21:49 | -34.81983 | -58.53823 | 22594 ft | 106 kts | 336° |
| 2026-05-07 21:49 | -34.81333 | -58.54230 | 23106 ft | 105 kts | 333° |
| 2026-05-07 21:50 | -34.80694 | -58.54640 | 23552 ft | 103 kts | 333° |
| 2026-05-07 21:50 | -34.80057 | -58.55051 | 23950 ft | 104 kts | 334° |
| 2026-05-07 21:50 | -34.79420 | -58.55463 | 24344 ft | 104 kts | 334° |
| 2026-05-07 21:50 | -34.78784 | -58.55874 | 24738 ft | 104 kts | 334° |
| 2026-05-07 21:51 | -34.78147 | -58.56286 | 25126 ft | 104 kts | 335° |
| 2026-05-07 21:51 | -34.77509 | -58.56698 | 25513 ft | 104 kts | 335° |
| 2026-05-07 21:51 | -34.76832 | -58.57133 | 25634 ft | 119 kts | 335° |
| 2026-05-07 21:51 | -34.76041 | -58.57641 | 25633 ft | 137 kts | 336° |
| 2026-05-07 21:52 | -34.75448 | -58.58021 | 25651 ft | 147 kts | 336° |
| 2026-05-07 21:52 | -34.74511 | -58.58626 | 25679 ft | 161 kts | 335° |
| 2026-05-07 21:52 | -34.73125 | -58.59521 | 25680 ft | 175 kts | 335° |
| 2026-05-07 21:52 | -34.72400 | -58.59989 | 25680 ft | 181 kts | 335° |
| 2026-05-07 21:53 | -34.71247 | -58.60734 | 25680 ft | 189 kts | 335° |
| 2026-05-07 21:53 | -34.70085 | -58.61482 | 25678 ft | 194 kts | 335° |
| 2026-05-07 21:53 | -34.68875 | -58.62263 | 25677 ft | 199 kts | 335° |
| 2026-05-07 21:53 | -34.67640 | -58.63058 | 25678 ft | 203 kts | 335° |
| 2026-05-07 21:54 | -34.66384 | -58.63867 | 25680 ft | 206 kts | 335° |
| 2026-05-07 21:54 | -34.65110 | -58.64687 | 25680 ft | 208 kts | 335° |
| 2026-05-07 21:54 | -34.63824 | -58.65515 | 25679 ft | 210 kts | 335° |
| 2026-05-07 21:54 | -34.62526 | -58.66349 | 25679 ft | 212 kts | 335° |
| 2026-05-07 21:55 | -34.61220 | -58.67190 | 25680 ft | 213 kts | 335° |
| 2026-05-07 21:55 | -34.59909 | -58.68032 | 25678 ft | 214 kts | 335° |
| 2026-05-07 21:55 | -34.58589 | -58.68880 | 25678 ft | 215 kts | 335° |
| 2026-05-07 21:55 | -34.57268 | -58.69729 | 25677 ft | 215 kts | 335° |
| 2026-05-07 21:56 | -34.55944 | -58.70579 | 25678 ft | 215 kts | 335° |
| 2026-05-07 21:56 | -34.54618 | -58.71430 | 25676 ft | 216 kts | 335° |
| 2026-05-07 21:56 | -34.53289 | -58.72283 | 25676 ft | 216 kts | 335° |
| 2026-05-07 21:56 | -34.51960 | -58.73135 | 25676 ft | 216 kts | 335° |
| 2026-05-07 21:57 | -34.50630 | -58.73988 | 25676 ft | 216 kts | 335° |
| 2026-05-07 21:57 | -34.49297 | -58.74842 | 25675 ft | 217 kts | 335° |
| 2026-05-07 21:57 | -34.47966 | -58.75695 | 25677 ft | 217 kts | 335° |
| 2026-05-07 21:57 | -34.46631 | -58.76550 | 25677 ft | 217 kts | 335° |
| 2026-05-07 21:58 | -34.45298 | -58.77403 | 25676 ft | 217 kts | 335° |
| 2026-05-07 21:58 | -34.43963 | -58.78258 | 25677 ft | 217 kts | 335° |
| 2026-05-07 21:58 | -34.42626 | -58.79113 | 25675 ft | 217 kts | 335° |
| 2026-05-07 21:58 | -34.41289 | -58.79968 | 25677 ft | 217 kts | 335° |
| 2026-05-07 21:59 | -34.39951 | -58.80823 | 25677 ft | 217 kts | 335° |
| 2026-05-07 21:59 | -34.38615 | -58.81677 | 25658 ft | 217 kts | 335° |
| 2026-05-07 21:59 | -34.37278 | -58.82532 | 25663 ft | 217 kts | 335° |
| 2026-05-07 21:59 | -34.35941 | -58.83385 | 25664 ft | 217 kts | 335° |
| 2026-05-07 22:00 | -34.34603 | -58.84239 | 25664 ft | 218 kts | 335° |
| 2026-05-07 22:00 | -34.33268 | -58.85091 | 25665 ft | 218 kts | 335° |
| 2026-05-07 22:00 | -34.31923 | -58.85949 | 25665 ft | 218 kts | 335° |
| 2026-05-07 22:00 | -34.30583 | -58.86803 | 25668 ft | 218 kts | 335° |
| 2026-05-07 22:01 | -34.29241 | -58.87659 | 25671 ft | 218 kts | 335° |
| 2026-05-07 22:01 | -34.27902 | -58.88512 | 25671 ft | 218 kts | 335° |
| 2026-05-07 22:01 | -34.26561 | -58.89366 | 25671 ft | 218 kts | 335° |
| 2026-05-07 22:01 | -34.25221 | -58.90219 | 25671 ft | 218 kts | 335° |
| 2026-05-07 22:02 | -34.23882 | -58.91071 | 25671 ft | 218 kts | 335° |
| 2026-05-07 22:02 | -34.22542 | -58.91924 | 25674 ft | 218 kts | 335° |
| 2026-05-07 22:02 | -34.21201 | -58.92777 | 25674 ft | 218 kts | 335° |
| 2026-05-07 22:02 | -34.19862 | -58.93628 | 25664 ft | 218 kts | 335° |
| 2026-05-07 22:03 | -34.18523 | -58.94480 | 25673 ft | 218 kts | 335° |
| 2026-05-07 22:03 | -34.17180 | -58.95332 | 25673 ft | 218 kts | 335° |
| 2026-05-07 22:03 | -34.15836 | -58.96186 | 25676 ft | 219 kts | 335° |
| 2026-05-07 22:03 | -34.14488 | -58.97042 | 25674 ft | 219 kts | 335° |
| 2026-05-07 22:04 | -34.13136 | -58.97900 | 25673 ft | 219 kts | 335° |
| 2026-05-07 22:04 | -34.11783 | -58.98758 | 25674 ft | 220 kts | 335° |
| 2026-05-07 22:04 | -34.10430 | -58.99616 | 25673 ft | 220 kts | 335° |
| 2026-05-07 22:04 | -34.09073 | -59.00476 | 25673 ft | 220 kts | 335° |
| 2026-05-07 22:05 | -34.07719 | -59.01335 | 25678 ft | 220 kts | 335° |
| 2026-05-07 22:05 | -34.06365 | -59.02192 | 25678 ft | 220 kts | 335° |
| 2026-05-07 22:05 | -34.05010 | -59.03051 | 25695 ft | 220 kts | 335° |
| 2026-05-07 22:05 | -34.03653 | -59.03909 | 25693 ft | 221 kts | 336° |
| 2026-05-07 22:06 | -34.02294 | -59.04769 | 25693 ft | 220 kts | 336° |
| 2026-05-07 22:06 | -34.00938 | -59.05627 | 25694 ft | 220 kts | 336° |
| 2026-05-07 22:06 | -33.99591 | -59.06479 | 25683 ft | 220 kts | 336° |
| 2026-05-07 22:06 | -33.98235 | -59.07336 | 25669 ft | 220 kts | 336° |
| 2026-05-07 22:07 | -33.96854 | -59.08207 | 25449 ft | 227 kts | 336° |
| 2026-05-07 22:07 | -33.95441 | -59.09098 | 25233 ft | 232 kts | 335° |
| 2026-05-07 22:07 | -33.93993 | -59.10013 | 24943 ft | 239 kts | 335° |
| 2026-05-07 22:07 | -33.92496 | -59.10956 | 24559 ft | 246 kts | 335° |
| 2026-05-07 22:08 | -33.90970 | -59.11920 | 24173 ft | 249 kts | 335° |
| 2026-05-07 22:08 | -33.89434 | -59.12890 | 23793 ft | 250 kts | 335° |
| 2026-05-07 22:08 | -33.87890 | -59.13863 | 23404 ft | 251 kts | 334° |
| 2026-05-07 22:08 | -33.86335 | -59.14842 | 22993 ft | 253 kts | 334° |
| 2026-05-07 22:09 | -33.84762 | -59.15833 | 22545 ft | 256 kts | 334° |
| 2026-05-07 22:09 | -33.83173 | -59.16832 | 22102 ft | 260 kts | 333° |
| 2026-05-07 22:09 | -33.81561 | -59.17847 | 21652 ft | 263 kts | 333° |
| 2026-05-07 22:09 | -33.79930 | -59.18873 | 21214 ft | 266 kts | 332° |
| 2026-05-07 22:10 | -33.78280 | -59.19910 | 20793 ft | 269 kts | 332° |
| 2026-05-07 22:10 | -33.76610 | -59.20960 | 20380 ft | 272 kts | 331° |
| 2026-05-07 22:10 | -33.74927 | -59.22017 | 19968 ft | 274 kts | 330° |
| 2026-05-07 22:10 | -33.73227 | -59.23086 | 19562 ft | 277 kts | 330° |
| 2026-05-07 22:11 | -33.71509 | -59.24163 | 19148 ft | 280 kts | 329° |
| 2026-05-07 22:11 | -33.69774 | -59.25253 | 18770 ft | 283 kts | 329° |
| 2026-05-07 22:11 | -33.68021 | -59.26350 | 18379 ft | 285 kts | 329° |
| 2026-05-07 22:11 | -33.66265 | -59.27451 | 17988 ft | 284 kts | 328° |
| 2026-05-07 22:12 | -33.64524 | -59.28542 | 17717 ft | 278 kts | 328° |
| 2026-05-07 22:12 | -33.62829 | -59.29605 | 17716 ft | 272 kts | 328° |
| 2026-05-07 22:12 | -33.61166 | -59.30645 | 17715 ft | 268 kts | 328° |
| 2026-05-07 22:12 | -33.59523 | -59.31672 | 17714 ft | 265 kts | 328° |
| 2026-05-07 22:13 | -33.57897 | -59.32690 | 17725 ft | 263 kts | 328° |
| 2026-05-07 22:13 | -33.56280 | -59.33703 | 17722 ft | 262 kts | 328° |
| 2026-05-07 22:13 | -33.54665 | -59.34710 | 17720 ft | 261 kts | 328° |
| 2026-05-07 22:13 | -33.53078 | -59.35703 | 17720 ft | 260 kts | 328° |
| 2026-05-07 22:14 | -33.51522 | -59.36669 | 18275 ft | 239 kts | 328° |
| 2026-05-07 22:14 | -33.50136 | -59.37533 | 19126 ft | 210 kts | 329° |
| 2026-05-07 22:14 | -33.48927 | -59.38290 | 20069 ft | 182 kts | 330° |
| 2026-05-07 22:14 | -33.47887 | -59.38941 | 21065 ft | 155 kts | 332° |
| 2026-05-07 22:15 | -33.47012 | -59.39492 | 22060 ft | 130 kts | 334° |
| 2026-05-07 22:15 | -33.46267 | -59.39960 | 22917 ft | 113 kts | 335° |
| 2026-05-07 22:15 | -33.45586 | -59.40384 | 23455 ft | 110 kts | 336° |
| 2026-05-07 22:15 | -33.44902 | -59.40810 | 23859 ft | 111 kts | 337° |
| 2026-05-07 22:16 | -33.44218 | -59.41235 | 24267 ft | 111 kts | 337° |
| 2026-05-07 22:16 | -33.43534 | -59.41660 | 24668 ft | 111 kts | 338° |
| 2026-05-07 22:16 | -33.42852 | -59.42085 | 25066 ft | 111 kts | 338° |
| 2026-05-07 22:16 | -33.42157 | -59.42518 | 25420 ft | 114 kts | 339° |
| 2026-05-07 22:17 | -33.41452 | -59.42956 | 25803 ft | 114 kts | 339° |
| 2026-05-07 22:17 | -33.40746 | -59.43396 | 26190 ft | 114 kts | 339° |
| 2026-05-07 22:17 | -33.40039 | -59.43836 | 26577 ft | 115 kts | 340° |
| 2026-05-07 22:17 | -33.39330 | -59.44277 | 26952 ft | 115 kts | 340° |
| 2026-05-07 22:18 | -33.38623 | -59.44718 | 27328 ft | 115 kts | 340° |
| 2026-05-07 22:18 | -33.37135 | -59.45636 | 27735 ft | 133 kts | 340° |
| 2026-05-07 22:18 | -33.36262 | -59.46175 | 27749 ft | 149 kts | 340° |
| 2026-05-07 22:19 | -33.35319 | -59.46761 | 27748 ft | 162 kts | 339° |
| 2026-05-07 22:19 | -33.34262 | -59.47419 | 27748 ft | 174 kts | 339° |
| 2026-05-07 22:19 | -33.33164 | -59.48103 | 27749 ft | 183 kts | 339° |
| 2026-05-07 22:19 | -33.32010 | -59.48821 | 27751 ft | 190 kts | 339° |
| 2026-05-07 22:20 | -33.30815 | -59.49564 | 27757 ft | 196 kts | 338° |
| 2026-05-07 22:20 | -33.29586 | -59.50327 | 27754 ft | 201 kts | 338° |
| 2026-05-07 22:20 | -33.28330 | -59.51107 | 27757 ft | 205 kts | 338° |
| 2026-05-07 22:20 | -33.27054 | -59.51899 | 27755 ft | 208 kts | 338° |
| 2026-05-07 22:21 | -33.25763 | -59.52701 | 27759 ft | 210 kts | 338° |
| 2026-05-07 22:21 | -33.24461 | -59.53508 | 27760 ft | 212 kts | 338° |
| 2026-05-07 22:21 | -33.23150 | -59.54320 | 27759 ft | 213 kts | 338° |
| 2026-05-07 22:21 | -33.21832 | -59.55137 | 27748 ft | 214 kts | 338° |
| 2026-05-07 22:22 | -33.20506 | -59.55958 | 27758 ft | 215 kts | 338° |
| 2026-05-07 22:22 | -33.19172 | -59.56783 | 27754 ft | 216 kts | 338° |
| 2026-05-07 22:22 | -33.17833 | -59.57612 | 27757 ft | 217 kts | 338° |
| 2026-05-07 22:22 | -33.16494 | -59.58441 | 27756 ft | 218 kts | 338° |
| 2026-05-07 22:23 | -33.15137 | -59.59280 | 27759 ft | 219 kts | 338° |
| 2026-05-07 22:23 | -33.13783 | -59.60117 | 27767 ft | 220 kts | 338° |
| 2026-05-07 22:23 | -33.12418 | -59.60960 | 27764 ft | 222 kts | 338° |
| 2026-05-07 22:23 | -33.11045 | -59.61809 | 27763 ft | 222 kts | 338° |
| 2026-05-07 22:24 | -33.09673 | -59.62656 | 27764 ft | 222 kts | 338° |
| 2026-05-07 22:24 | -33.08301 | -59.63504 | 27764 ft | 222 kts | 338° |
| 2026-05-07 22:24 | -33.06935 | -59.64346 | 27768 ft | 222 kts | 338° |
| 2026-05-07 22:24 | -33.05563 | -59.65193 | 27768 ft | 222 kts | 338° |
| 2026-05-07 22:25 | -33.04190 | -59.66040 | 27767 ft | 222 kts | 338° |
| 2026-05-07 22:25 | -33.02815 | -59.66887 | 27753 ft | 222 kts | 338° |
| 2026-05-07 22:25 | -33.01440 | -59.67735 | 27754 ft | 223 kts | 338° |
| 2026-05-07 22:25 | -33.00063 | -59.68583 | 27754 ft | 223 kts | 338° |
| 2026-05-07 22:26 | -32.98683 | -59.69433 | 27758 ft | 223 kts | 338° |
| 2026-05-07 22:26 | -32.97307 | -59.70280 | 27758 ft | 223 kts | 338° |
| 2026-05-07 22:26 | -32.95922 | -59.71132 | 27757 ft | 223 kts | 338° |
| 2026-05-07 22:26 | -32.94539 | -59.71983 | 27765 ft | 224 kts | 338° |
| 2026-05-07 22:27 | -32.93156 | -59.72833 | 27765 ft | 224 kts | 338° |
| 2026-05-07 22:27 | -32.91776 | -59.73682 | 27766 ft | 224 kts | 338° |
| 2026-05-07 22:27 | -32.90393 | -59.74531 | 27769 ft | 224 kts | 338° |
| 2026-05-07 22:27 | -32.89006 | -59.75383 | 27769 ft | 224 kts | 338° |
| 2026-05-07 22:28 | -32.87622 | -59.76234 | 27770 ft | 224 kts | 338° |
| 2026-05-07 22:28 | -32.86238 | -59.77083 | 27770 ft | 224 kts | 338° |
| 2026-05-07 22:28 | -32.84853 | -59.77933 | 27770 ft | 224 kts | 338° |
| 2026-05-07 22:28 | -32.83467 | -59.78783 | 27770 ft | 224 kts | 338° |
| 2026-05-07 22:29 | -32.82082 | -59.79632 | 27767 ft | 224 kts | 338° |
| 2026-05-07 22:29 | -32.80696 | -59.80482 | 27767 ft | 224 kts | 338° |
| 2026-05-07 22:29 | -32.79307 | -59.81332 | 27766 ft | 225 kts | 338° |
| 2026-05-07 22:29 | -32.77917 | -59.82184 | 27766 ft | 225 kts | 338° |
| 2026-05-07 22:30 | -32.76526 | -59.83037 | 27766 ft | 225 kts | 338° |
| 2026-05-07 22:30 | -32.75135 | -59.83888 | 27778 ft | 225 kts | 338° |
| 2026-05-07 22:30 | -32.73740 | -59.84741 | 27772 ft | 225 kts | 338° |
| 2026-05-07 22:30 | -32.72349 | -59.85592 | 27774 ft | 225 kts | 338° |
| 2026-05-07 22:31 | -32.70956 | -59.86444 | 27773 ft | 225 kts | 338° |
| 2026-05-07 22:31 | -32.69563 | -59.87295 | 27776 ft | 225 kts | 338° |
| 2026-05-07 22:31 | -32.68168 | -59.88148 | 27777 ft | 225 kts | 338° |
| 2026-05-07 22:31 | -32.66772 | -59.89000 | 27796 ft | 226 kts | 336° |
| 2026-05-07 22:32 | -32.65372 | -59.89856 | 27789 ft | 227 kts | 336° |
| 2026-05-07 22:32 | -32.64448 | -59.90419 | 27789 ft | 227 kts | 336° |
| 2026-05-07 22:32 | -32.63039 | -59.91280 | 27790 ft | 227 kts | 336° |
| 2026-05-07 22:32 | -32.61635 | -59.92136 | 27788 ft | 227 kts | 336° |
| 2026-05-07 22:33 | -32.60230 | -59.92993 | 27791 ft | 227 kts | 336° |
| 2026-05-07 22:33 | -32.58845 | -59.93905 | 27795 ft | 228 kts | 333° |
| 2026-05-07 22:33 | -32.57487 | -59.94875 | 27798 ft | 228 kts | 334° |
| 2026-05-07 22:33 | -32.56121 | -59.95835 | 27797 ft | 228 kts | 334° |
| 2026-05-07 22:34 | -32.54754 | -59.96796 | 27795 ft | 228 kts | 334° |
| 2026-05-07 22:34 | -32.53389 | -59.97759 | 27795 ft | 228 kts | 334° |
| 2026-05-07 22:34 | -32.52028 | -59.98729 | 27795 ft | 228 kts | 333° |
| 2026-05-07 22:34 | -32.50666 | -59.99696 | 27795 ft | 228 kts | 334° |
| 2026-05-07 22:35 | -32.49298 | -60.00650 | 27798 ft | 228 kts | 334° |
| 2026-05-07 22:35 | -32.47930 | -60.01608 | 27798 ft | 228 kts | 334° |
| 2026-05-07 22:35 | -32.46564 | -60.02569 | 27798 ft | 228 kts | 334° |
| 2026-05-07 22:35 | -32.45197 | -60.03532 | 27798 ft | 228 kts | 334° |
| 2026-05-07 22:36 | -32.43830 | -60.04494 | 27800 ft | 228 kts | 334° |
| 2026-05-07 22:36 | -32.42464 | -60.05455 | 27793 ft | 229 kts | 333° |
| 2026-05-07 22:36 | -32.41096 | -60.06417 | 27798 ft | 229 kts | 333° |
| 2026-05-07 22:36 | -32.39723 | -60.07382 | 27798 ft | 230 kts | 333° |
| 2026-05-07 22:37 | -32.38348 | -60.08349 | 27798 ft | 230 kts | 333° |
| 2026-05-07 22:37 | -32.36972 | -60.09315 | 27798 ft | 230 kts | 333° |
| 2026-05-07 22:37 | -32.35596 | -60.10282 | 27798 ft | 230 kts | 333° |
| 2026-05-07 22:37 | -32.34216 | -60.11250 | 27803 ft | 230 kts | 333° |
| 2026-05-07 22:38 | -32.32838 | -60.12217 | 27801 ft | 231 kts | 333° |
| 2026-05-07 22:38 | -32.31459 | -60.13185 | 27801 ft | 231 kts | 333° |
| 2026-05-07 22:38 | -32.30087 | -60.14146 | 27802 ft | 231 kts | 333° |
| 2026-05-07 22:38 | -32.28698 | -60.15122 | 27801 ft | 231 kts | 333° |
| 2026-05-07 22:39 | -32.27318 | -60.16088 | 27802 ft | 231 kts | 333° |
| 2026-05-07 22:39 | -32.25938 | -60.17054 | 27808 ft | 231 kts | 333° |
| 2026-05-07 22:39 | -32.24552 | -60.18023 | 27814 ft | 233 kts | 333° |
| 2026-05-07 22:39 | -32.23156 | -60.19004 | 27804 ft | 234 kts | 333° |
| 2026-05-07 22:40 | -32.21754 | -60.19989 | 27806 ft | 235 kts | 333° |
| 2026-05-07 22:40 | -32.20342 | -60.20973 | 27804 ft | 236 kts | 333° |
| 2026-05-07 22:40 | -32.18942 | -60.21948 | 27807 ft | 237 kts | 333° |
| 2026-05-07 22:40 | -32.17503 | -60.22955 | 27807 ft | 238 kts | 333° |
| 2026-05-07 22:41 | -32.16079 | -60.23950 | 27811 ft | 238 kts | 333° |
| 2026-05-07 22:41 | -32.14653 | -60.24946 | 27811 ft | 239 kts | 333° |
| 2026-05-07 22:41 | -32.13223 | -60.25944 | 27812 ft | 239 kts | 333° |
| 2026-05-07 22:41 | -32.11792 | -60.26943 | 27812 ft | 239 kts | 333° |
| 2026-05-07 22:42 | -32.10358 | -60.27944 | 27813 ft | 239 kts | 333° |
| 2026-05-07 22:42 | -32.08932 | -60.28938 | 27814 ft | 240 kts | 333° |
| 2026-05-07 22:42 | -32.07489 | -60.29945 | 27817 ft | 240 kts | 333° |
| 2026-05-07 22:42 | -32.06052 | -60.30946 | 27818 ft | 240 kts | 333° |
| 2026-05-07 22:43 | -32.04621 | -60.31942 | 27821 ft | 240 kts | 333° |
| 2026-05-07 22:43 | -32.03178 | -60.32948 | 27823 ft | 240 kts | 333° |
| 2026-05-07 22:43 | -32.01741 | -60.33948 | 27817 ft | 241 kts | 333° |
| 2026-05-07 22:43 | -32.00323 | -60.34934 | 27818 ft | 241 kts | 333° |
| 2026-05-07 22:44 | -31.98852 | -60.35958 | 27817 ft | 242 kts | 333° |
| 2026-05-07 22:44 | -31.97404 | -60.36965 | 27817 ft | 242 kts | 333° |
| 2026-05-07 22:44 | -31.95973 | -60.37960 | 27819 ft | 242 kts | 333° |
| 2026-05-07 22:44 | -31.94521 | -60.38968 | 27821 ft | 242 kts | 333° |
| 2026-05-07 22:45 | -31.93070 | -60.39976 | 27823 ft | 242 kts | 333° |
| 2026-05-07 22:45 | -31.91617 | -60.40985 | 27824 ft | 242 kts | 333° |
| 2026-05-07 22:45 | -31.90163 | -60.41995 | 27825 ft | 243 kts | 333° |
| 2026-05-07 22:45 | -31.88690 | -60.43017 | 27825 ft | 243 kts | 333° |
| 2026-05-07 22:46 | -31.87232 | -60.44028 | 27826 ft | 243 kts | 333° |
| 2026-05-07 22:46 | -31.85795 | -60.45024 | 27826 ft | 243 kts | 333° |
| 2026-05-07 22:46 | -31.84340 | -60.46033 | 27827 ft | 243 kts | 333° |
| 2026-05-07 22:46 | -31.82882 | -60.47049 | 27839 ft | 244 kts | 332° |
| 2026-05-07 22:47 | -31.81415 | -60.48061 | 27833 ft | 245 kts | 332° |
| 2026-05-07 22:47 | -31.79972 | -60.49135 | 27833 ft | 246 kts | 329° |
| 2026-05-07 22:47 | -31.78537 | -60.50237 | 27832 ft | 247 kts | 330° |
| 2026-05-07 22:47 | -31.77087 | -60.51321 | 27832 ft | 247 kts | 330° |
| 2026-05-07 22:48 | -31.75642 | -60.52420 | 27832 ft | 248 kts | 329° |
| 2026-05-07 22:48 | -31.74195 | -60.53529 | 27832 ft | 249 kts | 329° |
| 2026-05-07 22:48 | -31.72744 | -60.54637 | 27833 ft | 249 kts | 329° |
| 2026-05-07 22:48 | -31.71290 | -60.55745 | 27833 ft | 249 kts | 329° |
| 2026-05-07 22:49 | -31.69834 | -60.56854 | 27834 ft | 249 kts | 329° |
| 2026-05-07 22:49 | -31.68389 | -60.57955 | 27834 ft | 250 kts | 329° |
| 2026-05-07 22:49 | -31.66930 | -60.59065 | 27835 ft | 250 kts | 329° |
| 2026-05-07 22:49 | -31.65474 | -60.60174 | 27836 ft | 250 kts | 329° |
| 2026-05-07 22:50 | -31.64018 | -60.61282 | 27838 ft | 250 kts | 329° |
| 2026-05-07 22:50 | -31.62558 | -60.62392 | 27838 ft | 250 kts | 329° |
| 2026-05-07 22:50 | -31.61099 | -60.63501 | 27834 ft | 250 kts | 329° |
| 2026-05-07 22:50 | -31.59642 | -60.64609 | 27834 ft | 250 kts | 329° |
| 2026-05-07 22:51 | -31.58179 | -60.65721 | 27834 ft | 250 kts | 329° |
| 2026-05-07 22:51 | -31.56716 | -60.66831 | 27834 ft | 250 kts | 329° |
| 2026-05-07 22:51 | -31.55254 | -60.67942 | 27834 ft | 251 kts | 329° |
| 2026-05-07 22:51 | -31.53789 | -60.69053 | 27837 ft | 251 kts | 329° |
| 2026-05-07 22:52 | -31.52323 | -60.70165 | 27838 ft | 251 kts | 329° |
| 2026-05-07 22:52 | -31.50859 | -60.71276 | 27838 ft | 251 kts | 329° |
| 2026-05-07 22:52 | -31.49392 | -60.72387 | 27838 ft | 251 kts | 329° |
| 2026-05-07 22:52 | -31.47927 | -60.73498 | 27838 ft | 251 kts | 329° |
| 2026-05-07 22:53 | -31.46459 | -60.74609 | 27839 ft | 251 kts | 329° |
| 2026-05-07 22:53 | -31.44999 | -60.75722 | 27854 ft | 252 kts | 325° |
| 2026-05-07 22:53 | -31.43515 | -60.76847 | 27848 ft | 254 kts | 326° |
| 2026-05-07 22:53 | -31.42017 | -60.77966 | 27837 ft | 256 kts | 325° |
| 2026-05-07 22:54 | -31.40518 | -60.79101 | 27848 ft | 258 kts | 325° |
| 2026-05-07 22:54 | -31.39009 | -60.80246 | 27842 ft | 259 kts | 325° |
| 2026-05-07 22:54 | -31.37495 | -60.81391 | 27841 ft | 260 kts | 325° |
| 2026-05-07 22:54 | -31.35975 | -60.82538 | 27844 ft | 260 kts | 325° |
| 2026-05-07 22:55 | -31.34450 | -60.83689 | 27845 ft | 261 kts | 325° |
| 2026-05-07 22:55 | -31.32924 | -60.84842 | 27844 ft | 261 kts | 325° |
| 2026-05-07 22:55 | -31.31395 | -60.85995 | 27842 ft | 262 kts | 325° |
| 2026-05-07 22:55 | -31.29861 | -60.87152 | 27848 ft | 262 kts | 325° |
| 2026-05-07 22:56 | -31.28327 | -60.88309 | 27848 ft | 263 kts | 325° |
| 2026-05-07 22:56 | -31.26792 | -60.89466 | 27849 ft | 263 kts | 325° |
| 2026-05-07 22:56 | -31.25263 | -60.90617 | 27850 ft | 263 kts | 325° |
| 2026-05-07 22:56 | -31.23727 | -60.91773 | 27850 ft | 263 kts | 325° |
| 2026-05-07 22:57 | -31.22186 | -60.92934 | 27851 ft | 263 kts | 325° |
| 2026-05-07 22:57 | -31.20644 | -60.94091 | 27845 ft | 264 kts | 324° |
| 2026-05-07 22:57 | -31.19120 | -60.95241 | 27846 ft | 265 kts | 324° |
| 2026-05-07 22:57 | -31.17544 | -60.96428 | 27847 ft | 266 kts | 324° |
| 2026-05-07 22:58 | -31.15984 | -60.97599 | 27843 ft | 267 kts | 324° |
| 2026-05-07 22:58 | -31.14462 | -60.98741 | 27846 ft | 268 kts | 324° |
| 2026-05-07 22:58 | -31.12847 | -60.99954 | 27854 ft | 268 kts | 324° |
| 2026-05-07 22:58 | -31.11274 | -61.01135 | 27855 ft | 269 kts | 324° |
| 2026-05-07 22:59 | -31.09700 | -61.02316 | 27851 ft | 269 kts | 324° |
| 2026-05-07 22:59 | -31.08145 | -61.03482 | 27853 ft | 270 kts | 324° |
| 2026-05-07 22:59 | -31.06546 | -61.04683 | 27858 ft | 270 kts | 322° |
| 2026-05-07 22:59 | -31.04968 | -61.05874 | 27859 ft | 274 kts | 322° |
| 2026-05-07 23:00 | -31.03355 | -61.07069 | 27863 ft | 276 kts | 322° |
| 2026-05-07 23:00 | -31.01735 | -61.08272 | 27855 ft | 278 kts | 322° |
| 2026-05-07 23:00 | -31.00112 | -61.09495 | 27859 ft | 279 kts | 321° |
| 2026-05-07 23:00 | -30.98474 | -61.10722 | 27864 ft | 281 kts | 321° |
| 2026-05-07 23:01 | -30.96844 | -61.11935 | 27865 ft | 282 kts | 321° |
| 2026-05-07 23:01 | -30.95187 | -61.13168 | 27869 ft | 283 kts | 321° |
| 2026-05-07 23:01 | -30.93506 | -61.14422 | 27870 ft | 284 kts | 321° |
| 2026-05-07 23:01 | -30.91838 | -61.15665 | 27871 ft | 285 kts | 321° |
| 2026-05-07 23:02 | -30.90189 | -61.16894 | 27872 ft | 285 kts | 321° |
| 2026-05-07 23:02 | -30.88522 | -61.18134 | 27873 ft | 286 kts | 321° |
| 2026-05-07 23:02 | -30.86826 | -61.19397 | 27874 ft | 286 kts | 321° |
| 2026-05-07 23:02 | -30.85148 | -61.20645 | 27875 ft | 287 kts | 321° |
| 2026-05-07 23:03 | -30.83466 | -61.21896 | 27882 ft | 287 kts | 321° |
| 2026-05-07 23:03 | -30.81807 | -61.23129 | 27882 ft | 287 kts | 321° |
| 2026-05-07 23:03 | -30.80119 | -61.24382 | 27883 ft | 287 kts | 321° |
| 2026-05-07 23:03 | -30.78437 | -61.25631 | 27873 ft | 286 kts | 321° |
| 2026-05-07 23:04 | -30.76760 | -61.26878 | 27877 ft | 286 kts | 321° |
| 2026-05-07 23:04 | -30.75081 | -61.28124 | 27878 ft | 286 kts | 321° |
| 2026-05-07 23:04 | -30.73403 | -61.29367 | 27878 ft | 286 kts | 321° |
| 2026-05-07 23:04 | -30.71719 | -61.30616 | 27879 ft | 286 kts | 321° |
| 2026-05-07 23:05 | -30.70040 | -61.31860 | 27879 ft | 286 kts | 321° |
| 2026-05-07 23:05 | -30.68376 | -61.33094 | 27879 ft | 287 kts | 321° |
| 2026-05-07 23:05 | -30.66678 | -61.34352 | 27881 ft | 288 kts | 319° |
| 2026-05-07 23:05 | -30.64988 | -61.35607 | 27879 ft | 290 kts | 319° |
| 2026-05-07 23:06 | -30.63283 | -61.36869 | 27879 ft | 292 kts | 319° |
| 2026-05-07 23:06 | -30.61566 | -61.38134 | 27879 ft | 293 kts | 319° |
| 2026-05-07 23:06 | -30.59836 | -61.39412 | 27878 ft | 294 kts | 319° |
| 2026-05-07 23:06 | -30.58109 | -61.40689 | 27879 ft | 295 kts | 319° |
| 2026-05-07 23:07 | -30.56371 | -61.41973 | 27883 ft | 296 kts | 319° |
| 2026-05-07 23:07 | -30.54642 | -61.43250 | 27884 ft | 297 kts | 319° |
| 2026-05-07 23:07 | -30.52897 | -61.44537 | 27884 ft | 297 kts | 319° |
| 2026-05-07 23:07 | -30.51150 | -61.45826 | 27891 ft | 298 kts | 319° |
| 2026-05-07 23:08 | -30.49405 | -61.47112 | 27891 ft | 298 kts | 319° |
| 2026-05-07 23:08 | -30.47646 | -61.48409 | 27891 ft | 299 kts | 319° |
| 2026-05-07 23:08 | -30.45893 | -61.49701 | 27892 ft | 299 kts | 319° |
| 2026-05-07 23:08 | -30.44135 | -61.50994 | 27893 ft | 299 kts | 319° |
| 2026-05-07 23:09 | -30.42383 | -61.52284 | 27894 ft | 300 kts | 319° |
| 2026-05-07 23:09 | -30.40625 | -61.53578 | 27894 ft | 300 kts | 319° |
| 2026-05-07 23:09 | -30.38863 | -61.54873 | 27895 ft | 300 kts | 319° |
| 2026-05-07 23:09 | -30.37103 | -61.56167 | 27897 ft | 300 kts | 317° |
| 2026-05-07 23:10 | -30.35334 | -61.57471 | 27902 ft | 301 kts | 317° |
| 2026-05-07 23:10 | -30.33561 | -61.58772 | 27901 ft | 303 kts | 317° |
| 2026-05-07 23:10 | -30.31780 | -61.60080 | 27901 ft | 304 kts | 317° |
| 2026-05-07 23:10 | -30.29992 | -61.61391 | 27901 ft | 305 kts | 317° |
| 2026-05-07 23:11 | -30.28200 | -61.62705 | 27905 ft | 305 kts | 317° |
| 2026-05-07 23:11 | -30.26403 | -61.64022 | 27906 ft | 306 kts | 317° |
| 2026-05-07 23:11 | -30.24605 | -61.65340 | 27906 ft | 307 kts | 317° |
| 2026-05-07 23:11 | -30.22801 | -61.66661 | 27907 ft | 307 kts | 317° |
| 2026-05-07 23:12 | -30.20998 | -61.67982 | 27902 ft | 307 kts | 317° |
| 2026-05-07 23:12 | -30.19800 | -61.68858 | 27902 ft | 308 kts | 317° |
| 2026-05-07 23:12 | -30.17996 | -61.70178 | 27906 ft | 308 kts | 317° |
| 2026-05-07 23:12 | -30.16191 | -61.71498 | 27876 ft | 308 kts | 316° |
| 2026-05-07 23:13 | -30.14385 | -61.72817 | 27900 ft | 307 kts | 316° |
| 2026-05-07 23:13 | -30.12582 | -61.74135 | 27901 ft | 307 kts | 316° |
| 2026-05-07 23:13 | -30.10777 | -61.75455 | 27903 ft | 307 kts | 316° |
| 2026-05-07 23:13 | -30.08983 | -61.76764 | 27902 ft | 307 kts | 316° |
| 2026-05-07 23:14 | -30.07176 | -61.78083 | 27901 ft | 307 kts | 316° |
| 2026-05-07 23:14 | -30.05364 | -61.79405 | 27902 ft | 307 kts | 316° |
| 2026-05-07 23:14 | -30.03559 | -61.80721 | 27902 ft | 307 kts | 316° |
| 2026-05-07 23:14 | -30.01751 | -61.82038 | 27903 ft | 307 kts | 316° |
| 2026-05-07 23:15 | -29.99945 | -61.83354 | 27903 ft | 307 kts | 316° |
| 2026-05-07 23:15 | -29.98136 | -61.84672 | 27902 ft | 307 kts | 316° |
| 2026-05-07 23:15 | -29.96328 | -61.85987 | 27904 ft | 307 kts | 316° |
| 2026-05-07 23:15 | -29.94519 | -61.87304 | 27867 ft | 307 kts | 316° |
| 2026-05-07 23:16 | -29.92721 | -61.88610 | 27902 ft | 305 kts | 316° |
| 2026-05-07 23:16 | -29.90927 | -61.89914 | 27902 ft | 305 kts | 316° |
| 2026-05-07 23:16 | -29.89131 | -61.91219 | 27903 ft | 305 kts | 316° |
| 2026-05-07 23:16 | -29.87365 | -61.92499 | 27899 ft | 307 kts | 316° |
| 2026-05-07 23:17 | -29.85438 | -61.93717 | 27904 ft | 312 kts | 319° |
| 2026-05-07 23:17 | -29.83516 | -61.94887 | 27902 ft | 314 kts | 319° |
| 2026-05-07 23:17 | -29.81583 | -61.96073 | 27902 ft | 315 kts | 319° |
| 2026-05-07 23:17 | -29.79649 | -61.97268 | 27902 ft | 316 kts | 319° |
| 2026-05-07 23:18 | -29.77705 | -61.98471 | 27905 ft | 317 kts | 319° |
| 2026-05-07 23:18 | -29.75756 | -61.99674 | 27911 ft | 318 kts | 319° |
| 2026-05-07 23:18 | -29.73802 | -62.00877 | 27912 ft | 319 kts | 319° |
| 2026-05-07 23:18 | -29.71854 | -62.02076 | 27907 ft | 318 kts | 319° |
| 2026-05-07 23:19 | -29.69903 | -62.03275 | 27907 ft | 318 kts | 319° |
| 2026-05-07 23:19 | -29.67960 | -62.04473 | 27913 ft | 318 kts | 319° |
| 2026-05-07 23:19 | -29.66053 | -62.05647 | 27914 ft | 319 kts | 319° |
| 2026-05-07 23:19 | -29.64049 | -62.06879 | 27915 ft | 319 kts | 319° |
| 2026-05-07 23:20 | -29.62098 | -62.08078 | 27913 ft | 319 kts | 319° |
| 2026-05-07 23:20 | -29.60139 | -62.09281 | 27914 ft | 319 kts | 319° |
| 2026-05-07 23:20 | -29.58196 | -62.10474 | 27917 ft | 319 kts | 319° |
| 2026-05-07 23:20 | -29.56240 | -62.11675 | 27918 ft | 319 kts | 319° |
| 2026-05-07 23:21 | -29.54280 | -62.12877 | 27918 ft | 319 kts | 319° |
| 2026-05-07 23:21 | -29.52335 | -62.14070 | 27918 ft | 319 kts | 319° |
| 2026-05-07 23:21 | -29.50370 | -62.15275 | 27845 ft | 319 kts | 319° |
| 2026-05-07 23:21 | -29.48422 | -62.16465 | 27915 ft | 316 kts | 319° |
| 2026-05-07 23:22 | -29.46494 | -62.17647 | 27917 ft | 316 kts | 319° |
| 2026-05-07 23:22 | -29.44565 | -62.18830 | 27917 ft | 315 kts | 319° |
| 2026-05-07 23:22 | -29.42628 | -62.20016 | 27917 ft | 315 kts | 319° |
| 2026-05-07 23:22 | -29.40693 | -62.21199 | 27929 ft | 315 kts | 319° |
| 2026-05-07 23:23 | -29.38775 | -62.22371 | 27919 ft | 315 kts | 319° |
| 2026-05-07 23:23 | -29.36841 | -62.23555 | 27920 ft | 316 kts | 318° |
| 2026-05-07 23:23 | -29.34900 | -62.24740 | 27921 ft | 317 kts | 318° |
| 2026-05-07 23:23 | -29.32950 | -62.25932 | 27919 ft | 318 kts | 317° |
| 2026-05-07 23:24 | -29.30994 | -62.27130 | 27925 ft | 319 kts | 318° |
| 2026-05-07 23:24 | -29.29031 | -62.28325 | 27924 ft | 321 kts | 318° |
| 2026-05-07 23:24 | -29.27094 | -62.29502 | 27897 ft | 319 kts | 318° |
| 2026-05-07 23:24 | -29.25106 | -62.30711 | 27928 ft | 318 kts | 318° |
| 2026-05-07 23:25 | -29.23161 | -62.31899 | 27931 ft | 318 kts | 318° |
| 2026-05-07 23:25 | -29.21205 | -62.33092 | 27931 ft | 318 kts | 318° |
| 2026-05-07 23:25 | -29.19253 | -62.34279 | 27932 ft | 318 kts | 318° |
| 2026-05-07 23:25 | -29.17328 | -62.35450 | 27935 ft | 317 kts | 318° |
| 2026-05-07 23:26 | -29.15382 | -62.36634 | 27933 ft | 317 kts | 318° |
| 2026-05-07 23:26 | -29.13427 | -62.37823 | 27939 ft | 317 kts | 318° |
| 2026-05-07 23:26 | -29.11478 | -62.39007 | 27937 ft | 317 kts | 318° |
| 2026-05-07 23:26 | -29.09530 | -62.40190 | 27937 ft | 317 kts | 318° |
| 2026-05-07 23:27 | -29.05638 | -62.42553 | 27934 ft | 317 kts | 318° |
| 2026-05-07 23:27 | -29.03695 | -62.43729 | 27937 ft | 315 kts | 318° |
| 2026-05-07 23:27 | -29.01769 | -62.44897 | 27937 ft | 314 kts | 317° |
| 2026-05-07 23:28 | -28.99842 | -62.46067 | 27932 ft | 314 kts | 317° |
| 2026-05-07 23:28 | -28.97916 | -62.47234 | 27932 ft | 313 kts | 317° |
| 2026-05-07 23:28 | -28.95991 | -62.48399 | 27933 ft | 313 kts | 318° |
| 2026-05-07 23:28 | -28.94069 | -62.49563 | 27933 ft | 313 kts | 317° |
| 2026-05-07 23:29 | -28.92141 | -62.50729 | 27934 ft | 313 kts | 318° |
| 2026-05-07 23:29 | -28.90271 | -62.51861 | 27934 ft | 312 kts | 318° |
| 2026-05-07 23:29 | -28.88311 | -62.53045 | 27928 ft | 312 kts | 318° |
| 2026-05-07 23:29 | -28.86404 | -62.54198 | 27939 ft | 312 kts | 318° |
| 2026-05-07 23:30 | -28.84482 | -62.55362 | 27944 ft | 313 kts | 318° |
| 2026-05-07 23:30 | -28.82632 | -62.56577 | 27943 ft | 304 kts | 310° |
| 2026-05-07 23:30 | -28.80939 | -62.57988 | 27947 ft | 299 kts | 309° |
| 2026-05-07 23:30 | -28.79281 | -62.59395 | 27948 ft | 299 kts | 309° |
| 2026-05-07 23:31 | -28.77596 | -62.60799 | 27952 ft | 300 kts | 310° |
| 2026-05-07 23:31 | -28.75909 | -62.62192 | 27942 ft | 300 kts | 310° |
| 2026-05-07 23:31 | -28.74222 | -62.63590 | 27943 ft | 300 kts | 309° |
| 2026-05-07 23:31 | -28.72554 | -62.64976 | 27945 ft | 299 kts | 309° |
| 2026-05-07 23:32 | -28.70864 | -62.66379 | 27939 ft | 299 kts | 310° |
| 2026-05-07 23:32 | -28.69191 | -62.67766 | 27950 ft | 299 kts | 310° |
| 2026-05-07 23:32 | -28.67509 | -62.69160 | 27953 ft | 299 kts | 310° |
| 2026-05-07 23:32 | -28.65839 | -62.70543 | 27953 ft | 299 kts | 310° |
| 2026-05-07 23:33 | -28.64156 | -62.71938 | 27944 ft | 299 kts | 310° |
| 2026-05-07 23:33 | -28.62485 | -62.73321 | 27953 ft | 299 kts | 310° |
| 2026-05-07 23:33 | -28.60799 | -62.74716 | 27947 ft | 299 kts | 310° |
| 2026-05-07 23:33 | -28.59139 | -62.76088 | 27942 ft | 296 kts | 310° |
| 2026-05-07 23:34 | -28.57470 | -62.77467 | 27949 ft | 296 kts | 310° |
| 2026-05-07 23:34 | -28.55811 | -62.78841 | 27949 ft | 295 kts | 310° |
| 2026-05-07 23:34 | -28.54148 | -62.80215 | 27950 ft | 295 kts | 310° |
| 2026-05-07 23:34 | -28.52485 | -62.81589 | 27949 ft | 295 kts | 310° |
| 2026-05-07 23:35 | -28.50826 | -62.82958 | 27937 ft | 295 kts | 310° |
| 2026-05-07 23:35 | -28.49163 | -62.84330 | 27950 ft | 296 kts | 310° |
| 2026-05-07 23:35 | -28.47492 | -62.85711 | 27949 ft | 297 kts | 310° |
| 2026-05-07 23:35 | -28.45815 | -62.87093 | 27950 ft | 298 kts | 310° |
| 2026-05-07 23:36 | -28.44138 | -62.88475 | 27955 ft | 298 kts | 310° |
| 2026-05-07 23:36 | -28.42478 | -62.89842 | 27955 ft | 299 kts | 310° |
| 2026-05-07 23:36 | -28.40798 | -62.91226 | 27957 ft | 299 kts | 310° |
| 2026-05-07 23:36 | -28.39112 | -62.92614 | 27958 ft | 299 kts | 310° |
| 2026-05-07 23:37 | -28.37423 | -62.94004 | 27958 ft | 300 kts | 310° |
| 2026-05-07 23:37 | -28.35747 | -62.95382 | 27959 ft | 300 kts | 310° |
| 2026-05-07 23:37 | -28.34056 | -62.96773 | 27959 ft | 300 kts | 310° |
| 2026-05-07 23:37 | -28.32366 | -62.98161 | 27962 ft | 300 kts | 310° |
| 2026-05-07 23:38 | -28.30686 | -62.99542 | 27963 ft | 300 kts | 310° |
| 2026-05-07 23:38 | -28.28992 | -63.00932 | 27960 ft | 300 kts | 310° |
| 2026-05-07 23:38 | -28.27305 | -63.02318 | 27961 ft | 300 kts | 310° |
| 2026-05-07 23:38 | -28.25607 | -63.03711 | 27960 ft | 300 kts | 310° |
| 2026-05-07 23:39 | -28.23916 | -63.05098 | 27964 ft | 301 kts | 310° |
| 2026-05-07 23:39 | -28.22223 | -63.06487 | 27964 ft | 301 kts | 310° |
| 2026-05-07 23:39 | -28.20527 | -63.07877 | 27965 ft | 301 kts | 310° |
| 2026-05-07 23:39 | -28.18832 | -63.09266 | 27963 ft | 301 kts | 310° |
| 2026-05-07 23:40 | -28.17138 | -63.10653 | 27964 ft | 301 kts | 310° |
| 2026-05-07 23:40 | -28.15448 | -63.12036 | 27946 ft | 300 kts | 310° |
| 2026-05-07 23:40 | -28.13762 | -63.13415 | 27948 ft | 298 kts | 310° |
| 2026-05-07 23:40 | -28.12092 | -63.14781 | 27962 ft | 298 kts | 310° |
| 2026-05-07 23:41 | -28.10409 | -63.16161 | 27965 ft | 299 kts | 310° |
| 2026-05-07 23:41 | -28.08719 | -63.17541 | 27964 ft | 300 kts | 310° |
| 2026-05-07 23:41 | -28.07024 | -63.18925 | 27964 ft | 300 kts | 310° |
| 2026-05-07 23:41 | -28.05328 | -63.20310 | 27964 ft | 301 kts | 310° |
| 2026-05-07 23:42 | -28.03633 | -63.21694 | 27969 ft | 301 kts | 310° |
| 2026-05-07 23:42 | -28.01949 | -63.23068 | 27969 ft | 301 kts | 310° |
| 2026-05-07 23:42 | -28.00244 | -63.24459 | 27970 ft | 301 kts | 311° |
| 2026-05-07 23:42 | -27.98540 | -63.25848 | 27970 ft | 301 kts | 311° |
| 2026-05-07 23:43 | -27.96839 | -63.27235 | 27971 ft | 302 kts | 311° |
| 2026-05-07 23:43 | -27.95144 | -63.28616 | 27971 ft | 302 kts | 311° |
| 2026-05-07 23:43 | -27.93439 | -63.30005 | 27971 ft | 302 kts | 311° |
| 2026-05-07 23:43 | -27.91739 | -63.31387 | 27972 ft | 301 kts | 311° |
| 2026-05-07 23:44 | -27.90040 | -63.32770 | 27974 ft | 300 kts | 311° |
| 2026-05-07 23:44 | -27.88350 | -63.34146 | 27975 ft | 300 kts | 311° |
| 2026-05-07 23:44 | -27.86655 | -63.35525 | 27975 ft | 300 kts | 311° |
| 2026-05-07 23:44 | -27.84961 | -63.36901 | 27975 ft | 300 kts | 311° |
| 2026-05-07 23:45 | -27.83272 | -63.38274 | 27976 ft | 300 kts | 311° |
| 2026-05-07 23:45 | -27.81576 | -63.39651 | 27976 ft | 300 kts | 311° |
| 2026-05-07 23:45 | -27.79879 | -63.41029 | 27976 ft | 300 kts | 311° |
| 2026-05-07 23:45 | -27.78183 | -63.42405 | 27976 ft | 300 kts | 311° |
| 2026-05-07 23:46 | -27.76492 | -63.43777 | 27958 ft | 300 kts | 311° |
| 2026-05-07 23:46 | -27.74799 | -63.45148 | 27976 ft | 300 kts | 311° |
| 2026-05-07 23:46 | -27.73106 | -63.46523 | 27975 ft | 301 kts | 311° |
| 2026-05-07 23:46 | -27.71405 | -63.47902 | 27975 ft | 301 kts | 311° |
| 2026-05-07 23:47 | -27.69702 | -63.49280 | 27943 ft | 301 kts | 311° |
| 2026-05-07 23:47 | -27.68012 | -63.50646 | 27977 ft | 300 kts | 311° |
| 2026-05-07 23:47 | -27.66322 | -63.52016 | 27976 ft | 300 kts | 311° |
| 2026-05-07 23:47 | -27.64624 | -63.53391 | 27976 ft | 300 kts | 311° |
| 2026-05-07 23:48 | -27.62927 | -63.54763 | 27979 ft | 300 kts | 311° |
| 2026-05-07 23:48 | -27.61224 | -63.56139 | 27974 ft | 300 kts | 311° |
| 2026-05-07 23:48 | -27.59528 | -63.57509 | 27981 ft | 300 kts | 311° |
| 2026-05-07 23:48 | -27.57831 | -63.58881 | 27977 ft | 300 kts | 311° |
| 2026-05-07 23:49 | -27.56136 | -63.60249 | 27980 ft | 300 kts | 311° |
| 2026-05-07 23:49 | -27.54438 | -63.61619 | 27978 ft | 300 kts | 311° |
| 2026-05-07 23:49 | -27.52740 | -63.62990 | 27980 ft | 300 kts | 311° |
| 2026-05-07 23:49 | -27.51040 | -63.64360 | 27978 ft | 300 kts | 311° |
| 2026-05-07 23:50 | -27.49354 | -63.65720 | 27978 ft | 300 kts | 311° |
| 2026-05-07 23:50 | -27.47646 | -63.67096 | 27978 ft | 300 kts | 311° |
| 2026-05-07 23:50 | -27.45949 | -63.68463 | 27974 ft | 299 kts | 311° |
| 2026-05-07 23:50 | -27.44260 | -63.69823 | 27979 ft | 299 kts | 311° |
| 2026-05-07 23:51 | -27.42572 | -63.71183 | 27985 ft | 299 kts | 311° |
| 2026-05-07 23:51 | -27.40905 | -63.72525 | 27985 ft | 299 kts | 311° |
| 2026-05-07 23:51 | -27.39762 | -63.73443 | 27985 ft | 299 kts | 311° |
| 2026-05-07 23:51 | -27.37525 | -63.75243 | 27981 ft | 300 kts | 311° |
| 2026-05-07 23:52 | -27.35832 | -63.76604 | 27979 ft | 300 kts | 311° |
| 2026-05-07 23:52 | -27.34133 | -63.77969 | 27979 ft | 301 kts | 311° |
| 2026-05-07 23:52 | -27.32431 | -63.79335 | 27981 ft | 302 kts | 311° |
| 2026-05-07 23:52 | -27.30728 | -63.80703 | 27981 ft | 302 kts | 311° |
| 2026-05-07 23:53 | -27.29570 | -63.81631 | 27988 ft | 302 kts | 311° |
| 2026-05-07 23:53 | -27.27859 | -63.83004 | 27989 ft | 302 kts | 311° |
| 2026-05-07 23:53 | -27.25588 | -63.84826 | 27990 ft | 303 kts | 311° |
| 2026-05-07 23:53 | -27.23875 | -63.86198 | 27990 ft | 303 kts | 311° |
| 2026-05-07 23:54 | -27.22160 | -63.87572 | 27981 ft | 302 kts | 312° |
| 2026-05-07 23:54 | -27.21003 | -63.88498 | 27984 ft | 302 kts | 312° |
| 2026-05-07 23:54 | -27.19313 | -63.89853 | 27987 ft | 303 kts | 312° |
| 2026-05-07 23:54 | -27.17574 | -63.91244 | 27987 ft | 303 kts | 312° |
| 2026-05-07 23:55 | -27.15880 | -63.92600 | 27989 ft | 303 kts | 312° |
| 2026-05-07 23:55 | -27.14160 | -63.93976 | 27990 ft | 304 kts | 312° |
| 2026-05-07 23:55 | -27.12438 | -63.95352 | 27978 ft | 304 kts | 312° |
| 2026-05-07 23:55 | -27.10713 | -63.96731 | 27991 ft | 304 kts | 312° |
| 2026-05-07 23:56 | -27.08990 | -63.98107 | 27988 ft | 304 kts | 312° |
| 2026-05-07 23:56 | -27.07266 | -63.99484 | 27976 ft | 304 kts | 312° |
| 2026-05-07 23:56 | -27.05541 | -64.00861 | 27989 ft | 304 kts | 312° |
| 2026-05-07 23:56 | -27.03818 | -64.02237 | 27989 ft | 304 kts | 312° |
| 2026-05-07 23:57 | -27.02090 | -64.03614 | 27986 ft | 304 kts | 312° |
| 2026-05-07 23:57 | -27.00362 | -64.04992 | 27987 ft | 305 kts | 312° |
| 2026-05-07 23:57 | -26.98639 | -64.06365 | 27987 ft | 304 kts | 312° |
| 2026-05-07 23:57 | -26.96914 | -64.07740 | 27986 ft | 305 kts | 312° |
| 2026-05-07 23:58 | -26.95186 | -64.09126 | 27991 ft | 305 kts | 312° |
| 2026-05-07 23:58 | -26.93469 | -64.10526 | 27986 ft | 305 kts | 311° |
| 2026-05-07 23:58 | -26.91740 | -64.11935 | 27770 ft | 309 kts | 312° |
| 2026-05-07 23:58 | -26.89990 | -64.13349 | 27622 ft | 310 kts | 312° |
| 2026-05-07 23:59 | -26.88245 | -64.14754 | 27449 ft | 308 kts | 312° |
| 2026-05-07 23:59 | -26.86517 | -64.16153 | 27243 ft | 308 kts | 312° |
| 2026-05-07 23:59 | -26.84768 | -64.17570 | 27028 ft | 308 kts | 312° |
| 2026-05-07 23:59 | -26.83036 | -64.18970 | 26812 ft | 307 kts | 312° |
| 2026-05-08 00:00 | -26.81307 | -64.20365 | 26543 ft | 306 kts | 312° |
| 2026-05-08 00:00 | -26.79582 | -64.21760 | 26309 ft | 305 kts | 312° |
| 2026-05-08 00:00 | -26.77859 | -64.23149 | 26063 ft | 305 kts | 312° |
| 2026-05-08 00:00 | -26.76141 | -64.24538 | 25791 ft | 304 kts | 312° |
| 2026-05-08 00:01 | -26.74428 | -64.25919 | 25557 ft | 304 kts | 313° |
| 2026-05-08 00:01 | -26.72715 | -64.27300 | 25324 ft | 303 kts | 313° |
| 2026-05-08 00:01 | -26.71010 | -64.28674 | 25109 ft | 302 kts | 313° |
| 2026-05-08 00:01 | -26.69307 | -64.30048 | 24868 ft | 301 kts | 313° |
| 2026-05-08 00:02 | -26.67609 | -64.31415 | 24663 ft | 300 kts | 313° |
| 2026-05-08 00:02 | -26.65915 | -64.32779 | 24432 ft | 300 kts | 313° |
| 2026-05-08 00:02 | -26.64226 | -64.34139 | 24228 ft | 299 kts | 313° |
| 2026-05-08 00:02 | -26.62542 | -64.35494 | 24014 ft | 298 kts | 313° |
| 2026-05-08 00:03 | -26.60857 | -64.36850 | 23759 ft | 299 kts | 312° |
| 2026-05-08 00:03 | -26.59164 | -64.38212 | 23533 ft | 299 kts | 313° |
| 2026-05-08 00:03 | -26.57475 | -64.39569 | 23271 ft | 299 kts | 313° |
| 2026-05-08 00:03 | -26.55790 | -64.40921 | 23044 ft | 298 kts | 313° |
| 2026-05-08 00:04 | -26.54104 | -64.42277 | 22779 ft | 298 kts | 313° |
| 2026-05-08 00:04 | -26.52421 | -64.43627 | 22524 ft | 297 kts | 313° |
| 2026-05-08 00:04 | -26.50742 | -64.44975 | 22259 ft | 298 kts | 313° |
| 2026-05-08 00:04 | -26.49063 | -64.46323 | 22048 ft | 297 kts | 314° |
| 2026-05-08 00:05 | -26.47386 | -64.47667 | 21804 ft | 297 kts | 314° |
| 2026-05-08 00:05 | -26.45712 | -64.49008 | 21599 ft | 296 kts | 314° |
| 2026-05-08 00:05 | -26.44042 | -64.50347 | 21368 ft | 295 kts | 314° |
| 2026-05-08 00:05 | -26.42375 | -64.51682 | 21165 ft | 295 kts | 314° |
| 2026-05-08 00:06 | -26.40713 | -64.53013 | 20954 ft | 294 kts | 314° |
| 2026-05-08 00:06 | -26.39049 | -64.54345 | 20731 ft | 294 kts | 314° |
| 2026-05-08 00:06 | -26.37391 | -64.55672 | 20543 ft | 293 kts | 314° |
| 2026-05-08 00:06 | -26.35740 | -64.56993 | 20323 ft | 293 kts | 314° |
| 2026-05-08 00:07 | -26.34087 | -64.58317 | 20137 ft | 292 kts | 314° |
| 2026-05-08 00:07 | -26.32436 | -64.59634 | 19937 ft | 290 kts | 314° |
| 2026-05-08 00:07 | -26.30792 | -64.60948 | 19649 ft | 291 kts | 314° |
| 2026-05-08 00:07 | -26.29152 | -64.62258 | 19404 ft | 290 kts | 314° |
| 2026-05-08 00:08 | -26.27517 | -64.63564 | 19136 ft | 288 kts | 315° |
| 2026-05-08 00:08 | -26.25894 | -64.64858 | 18914 ft | 286 kts | 315° |
| 2026-05-08 00:08 | -26.24276 | -64.66150 | 18642 ft | 286 kts | 315° |
| 2026-05-08 00:08 | -26.22662 | -64.67437 | 18414 ft | 285 kts | 315° |
| 2026-05-08 00:09 | -26.21051 | -64.68722 | 18129 ft | 285 kts | 315° |
| 2026-05-08 00:09 | -26.19444 | -64.70003 | 17859 ft | 284 kts | 315° |
| 2026-05-08 00:09 | -26.17838 | -64.71284 | 17558 ft | 284 kts | 316° |
| 2026-05-08 00:09 | -26.16232 | -64.72564 | 17284 ft | 284 kts | 316° |
| 2026-05-08 00:10 | -26.14626 | -64.73842 | 17013 ft | 284 kts | 316° |
| 2026-05-08 00:10 | -26.13022 | -64.75117 | 16737 ft | 283 kts | 316° |
| 2026-05-08 00:10 | -26.11419 | -64.76393 | 16447 ft | 283 kts | 316° |
| 2026-05-08 00:10 | -26.09819 | -64.77669 | 16152 ft | 283 kts | 316° |
| 2026-05-08 00:11 | -26.08215 | -64.78944 | 15882 ft | 283 kts | 316° |
| 2026-05-08 00:11 | -26.06638 | -64.80196 | 15598 ft | 284 kts | 317° |
| 2026-05-08 00:11 | -26.05029 | -64.81475 | 15509 ft | 284 kts | 317° |
| 2026-05-08 00:11 | -26.03423 | -64.82749 | 15457 ft | 283 kts | 317° |
| 2026-05-08 00:12 | -26.01820 | -64.84024 | 15384 ft | 283 kts | 317° |
| 2026-05-08 00:12 | -26.00217 | -64.85297 | 15302 ft | 284 kts | 317° |
| 2026-05-08 00:12 | -25.98611 | -64.86569 | 15288 ft | 282 kts | 317° |
| 2026-05-08 00:12 | -25.97019 | -64.87829 | 15274 ft | 280 kts | 316° |
| 2026-05-08 00:13 | -25.95440 | -64.89085 | 15261 ft | 278 kts | 317° |
| 2026-05-08 00:13 | -25.93867 | -64.90331 | 15305 ft | 278 kts | 317° |
| 2026-05-08 00:13 | -25.92299 | -64.91584 | 15271 ft | 278 kts | 316° |
| 2026-05-08 00:13 | -25.90740 | -64.92820 | 15296 ft | 277 kts | 317° |
| 2026-05-08 00:14 | -25.89164 | -64.94055 | 15305 ft | 277 kts | 317° |
| 2026-05-08 00:14 | -25.87593 | -64.95294 | 15284 ft | 277 kts | 317° |
| 2026-05-08 00:14 | -25.86026 | -64.96541 | 15280 ft | 276 kts | 317° |
| 2026-05-08 00:14 | -25.84463 | -64.97781 | 15275 ft | 276 kts | 317° |
| 2026-05-08 00:15 | -25.82898 | -64.99017 | 15279 ft | 276 kts | 317° |
| 2026-05-08 00:15 | -25.81335 | -65.00253 | 15278 ft | 276 kts | 317° |
| 2026-05-08 00:15 | -25.79771 | -65.01489 | 15269 ft | 276 kts | 319° |
| 2026-05-08 00:15 | -25.78209 | -65.02723 | 15277 ft | 275 kts | 319° |
| 2026-05-08 00:16 | -25.76651 | -65.03955 | 15273 ft | 275 kts | 319° |
| 2026-05-08 00:16 | -25.75092 | -65.05185 | 15264 ft | 275 kts | 319° |
| 2026-05-08 00:16 | -25.73534 | -65.06415 | 15279 ft | 275 kts | 319° |
| 2026-05-08 00:16 | -25.71987 | -65.07649 | 15291 ft | 274 kts | 319° |
| 2026-05-08 00:17 | -25.70425 | -65.08863 | 15278 ft | 274 kts | 319° |
| 2026-05-08 00:17 | -25.68809 | -65.10003 | 15291 ft | 276 kts | 324° |
| 2026-05-08 00:17 | -25.67150 | -65.11081 | 15319 ft | 276 kts | 323° |
| 2026-05-08 00:17 | -25.65491 | -65.12165 | 15297 ft | 279 kts | 324° |
| 2026-05-08 00:18 | -25.63821 | -65.13239 | 15342 ft | 278 kts | 324° |
| 2026-05-08 00:18 | -25.62142 | -65.14340 | 15294 ft | 280 kts | 323° |
| 2026-05-08 00:18 | -25.60468 | -65.15442 | 15333 ft | 279 kts | 323° |
| 2026-05-08 00:18 | -25.58795 | -65.16551 | 15287 ft | 280 kts | 323° |
| 2026-05-08 00:19 | -25.57112 | -65.17623 | 15271 ft | 280 kts | 324° |
| 2026-05-08 00:19 | -25.55424 | -65.18699 | 15204 ft | 281 kts | 324° |
| 2026-05-08 00:19 | -25.53731 | -65.19833 | 14946 ft | 286 kts | 322° |
| 2026-05-08 00:19 | -25.52022 | -65.20962 | 14696 ft | 288 kts | 323° |
| 2026-05-08 00:20 | -25.50285 | -65.22094 | 14431 ft | 290 kts | 324° |
| 2026-05-08 00:20 | -25.48532 | -65.23197 | 14158 ft | 290 kts | 323° |
| 2026-05-08 00:20 | -25.46812 | -65.24348 | 13928 ft | 289 kts | 323° |
| 2026-05-08 00:20 | -25.45080 | -65.25492 | 13665 ft | 290 kts | 324° |
| 2026-05-08 00:21 | -25.43462 | -65.26525 | 13415 ft | 289 kts | 324° |
| 2026-05-08 00:21 | -25.41743 | -65.27633 | 13146 ft | 289 kts | 324° |
| 2026-05-08 00:21 | -25.39999 | -65.28769 | 12859 ft | 288 kts | 324° |
| 2026-05-08 00:21 | -25.38282 | -65.29893 | 12574 ft | 287 kts | 326° |
| 2026-05-08 00:22 | -25.36641 | -65.30953 | 12307 ft | 285 kts | 326° |
| 2026-05-08 00:22 | -25.34936 | -65.32063 | 12090 ft | 280 kts | 327° |
| 2026-05-08 00:22 | -25.33284 | -65.33118 | 12084 ft | 269 kts | 327° |
| 2026-05-08 00:22 | -25.31703 | -65.34170 | 12093 ft | 262 kts | 326° |
| 2026-05-08 00:23 | -25.30142 | -65.35192 | 12083 ft | 259 kts | 327° |
| 2026-05-08 00:23 | -25.28597 | -65.36188 | 12079 ft | 255 kts | 326° |
| 2026-05-08 00:23 | -25.27060 | -65.37176 | 11822 ft | 260 kts | 326° |
| 2026-05-08 00:23 | -25.25453 | -65.38221 | 11403 ft | 271 kts | 327° |
| 2026-05-08 00:24 | -25.23828 | -65.39280 | 11046 ft | 271 kts | 328° |
| 2026-05-08 00:24 | -25.22302 | -65.40264 | 10693 ft | 270 kts | 329° |
| 2026-05-08 00:24 | -25.20703 | -65.41292 | 10327 ft | 268 kts | 329° |
| 2026-05-08 00:24 | -25.19134 | -65.42315 | 9971 ft | 267 kts | 329° |
| 2026-05-08 00:25 | -25.17542 | -65.43354 | 9562 ft | 262 kts | 330° |
| 2026-05-08 00:25 | -25.15987 | -65.44351 | 9151 ft | 256 kts | 330° |
| 2026-05-08 00:25 | -25.14466 | -65.45341 | 8752 ft | 252 kts | 329° |
| 2026-05-08 00:25 | -25.13006 | -65.46299 | 8684 ft | 235 kts | 330° |
| 2026-05-08 00:26 | -25.11647 | -65.47187 | 8675 ft | 220 kts | 330° |
| 2026-05-08 00:26 | -25.10364 | -65.48023 | 8675 ft | 209 kts | 330° |
| 2026-05-08 00:26 | -25.09115 | -65.48837 | 8456 ft | 211 kts | 330° |
| 2026-05-08 00:26 | -25.07827 | -65.49674 | 8012 ft | 219 kts | 330° |
| 2026-05-08 00:27 | -25.06475 | -65.50552 | 7354 ft | 231 kts | 330° |
| 2026-05-08 00:27 | -25.05061 | -65.51473 | 6757 ft | 239 kts | 330° |
| 2026-05-08 00:27 | -25.03680 | -65.52372 | 6697 ft | 222 kts | 331° |
| 2026-05-08 00:27 | -25.02304 | -65.52960 | 6696 ft | 206 kts | 353° |
| 2026-05-08 00:28 | -25.00914 | -65.53185 | 6633 ft | 200 kts | 353° |
| 2026-05-08 00:28 | -24.99537 | -65.53407 | 6453 ft | 200 kts | 357° |
| 2026-05-08 00:28 | -24.98236 | -65.53237 | 6525 ft | 182 kts | 24° |
| 2026-05-08 00:28 | -24.97268 | -65.52481 | 6463 ft | 160 kts | 50° |
| 2026-05-08 00:29 | -24.96556 | -65.51619 | 6263 ft | 148 kts | 41° |
| 2026-05-08 00:29 | -24.95659 | -65.51164 | 6081 ft | 133 kts | 19° |
| 2026-05-08 00:29 | -24.94825 | -65.50805 | 5822 ft | 127 kts | 28° |
| 2026-05-08 00:29 | -24.93979 | -65.50513 | 5642 ft | 127 kts | 14° |
| 2026-05-08 00:30 | -24.93127 | -65.50289 | 5499 ft | 125 kts | 13° |
| 2026-05-08 00:30 | -24.92254 | -65.50069 | 5194 ft | 132 kts | 12° |
| 2026-05-08 00:30 | -24.91357 | -65.49886 | 4982 ft | 136 kts | 11° |
| 2026-05-08 00:30 | -24.90419 | -65.49672 | 4760 ft | 136 kts | 12° |
| 2026-05-08 00:31 | -24.89516 | -65.49474 | 4564 ft | 128 kts | 10° |
| 2026-05-08 00:31 | -24.88652 | -65.49296 | 4348 ft | 127 kts | 10° |
| 2026-05-08 00:31 | -24.87808 | -65.49110 | 4162 ft | 123 kts | 11° |
| 2026-05-08 00:31 | -24.87004 | -65.48933 | 4032 ft | 110 kts | 10° |
| 2026-05-08 00:32 | -24.86343 | -65.48784 | 4017 ft | 84 kts | 10° |
| 2026-05-08 00:32 | -24.85895 | -65.48691 | 4015 ft | 34 kts | 11° |
| 2026-05-08 00:32 | -24.85640 | -65.48639 | 4006 ft | 37 kts | 11° |
| 2026-05-08 00:32 | -24.85407 | -65.48586 | 4014 ft | 32 kts | 12° |
| 2026-05-08 00:33 | -24.85197 | -65.48541 | 4013 ft | 29 kts | 10° |
| 2026-05-08 00:33 | -24.85007 | -65.48502 | 4014 ft | 27 kts | 11° |
| 2026-05-08 00:33 | -24.84837 | -65.48464 | 4015 ft | 23 kts | 13° |
| 2026-05-08 00:33 | -24.84716 | -65.48431 | 4014 ft | 13 kts | 36° |
| 2026-05-08 00:34 | -24.84646 | -65.48362 | 4007 ft | 15 kts | 41° |
| 2026-05-08 00:34 | -24.84601 | -65.48307 | 4007 ft | 8 kts | 62° |
| 2026-05-08 00:34 | -24.84587 | -65.48260 | 4010 ft | 11 kts | 73° |
| 2026-05-08 00:34 | -24.84560 | -65.48166 | 4007 ft | 14 kts | 71° |
| 2026-05-08 00:35 | -24.84525 | -65.48047 | 4013 ft | 9 kts | 72° |
| 2026-05-08 00:35 | -24.84510 | -65.47995 | 4012 ft | 6 kts | 70° |
| 2026-05-08 00:35 | -24.84500 | -65.47965 | 4009 ft | 6 kts | 73° |
| 2026-05-08 00:35 | -24.84498 | -65.47937 | 4013 ft | 2 kts | 105° |
| 2026-05-08 00:36 | -24.84507 | -65.47915 | 4013 ft | 2 kts | 119° |
| 2026-05-08 00:36 | -24.84511 | -65.47909 | 4007 ft | 0 kts | 144° |
| 2026-05-08 00:37 | -24.84520 | -65.47916 | 4009 ft | 4 kts | 287° |
| 2026-05-08 00:37 | -24.84515 | -65.47940 | 4005 ft | 2 kts | 233° |
| 2026-05-08 00:38 | -24.84540 | -65.47951 | 4013 ft | 0 kts | 201° |
| 2026-05-08 00:41 | -24.84539 | -65.47951 | 4013 ft | 0 kts | 201° |
| 2026-05-08 00:44 | -24.84539 | -65.47950 | 4013 ft | 0 kts | 201° |
| 2026-05-08 00:54 | -24.84538 | -65.47950 | 4013 ft | 0 kts | 201° |